ナイロビ の空港の天気 - METARとTAF

ジョモ・ケニヤッタ国際空港 ( HKJK / NBO ) - ケニア ナイロビ
飛行場実況気象(Metar)
観測時間12/10 08:00 EAT (12/10 05:00 UTC)
風向・風速不定 1m/s
視程10km以上
天気現象
全天の8割程度の雲 雲底高度 550m
全天の8割程度の雲 雲底高度 2440m
気温18℃
湿度94%
気圧1024hPa
METARHKJK 100500Z VRB01KT 9999 BKN018 BKN080 18/17 Q1024 NOSIG
過去の天気等 Google飛行場航空写真 Wunderground天気予報

過去48時間のMETAR

飛行場予報(TAF)
発表時間: 12/10 02:00 EAT (12/09 23:00 UTC)
予報対象時間: 10日3時 EAT ~ 11日9時 EAT
風向・風速北北東 3m/s
視程10km以上
全天の8割程度の雲 雲底高度 520m
10日3時 EAT ~ 10日9時 EAT に一時的に
天気現象弱い雨
全天の4割程度の雲 雲底高度 150m
全天の8割程度の雲 雲底高度 490m
全天の8割程度の雲 雲底高度 2440m
10日11時 EAT ~ 10日14時 EAT に徐々に
風向・風速東北東 5m/s
少しの積乱雲 雲底高度 700m
全天の4割程度の雲 雲底高度 730m
10日15時 EAT ~ 10日21時 EAT に一時的に
天気現象弱いしゅう雨
少しの積乱雲 雲底高度 610m
全天の8割程度の雲 雲底高度 640m
全天の8割程度の雲 雲底高度 2440m
10日23時 EAT ~ 11日2時 EAT に徐々に
風向・風速北北東 3m/s
全天の4割程度の雲 雲底高度 550m
11日3時 EAT ~ 11日9時 EAT に一時的に
天気現象弱い雨
全天の4割程度の雲 雲底高度 150m
全天の8割程度の雲 雲底高度 460m
全天の8割程度の雲 雲底高度 2440m
TAF HKJK 092300Z 1000/1106 03005KT 9999 BKN017
TEMPO 1000/1006 -RA SCT005 BKN016 BKN080
BECMG 1008/1011 06010KT FEW023CB SCT024
TEMPO 1012/1018 -SHRA FEW020CB BKN021 BKN080
BECMG 1020/1023 02005KT SCT018
TEMPO 1100/1106 -RA SCT005 BKN015 BKN080